Current Weather

Basrah Intl

Basrah Intl, Iraq (ORMM)

Report from: Saturday, February 24, 2024 6:00 PM UTC
Current time: Saturday, February 24, 2024 6:34 PM UTC

Nearby weather – Weather history – Daily summaries
Weather forecast

Temperature14.0°C (57.2°F)
Dew point12.0°C (53.6°F)
Winds Calm
Visibility6.2 mi. (10 km)
Clouds Few clouds 3,000 ft. (914 m)
Ceiling: Broken clouds 10,000 ft. (3,048 m)
Altimeter29.97 in.Hg (1015 mB)
Relative humidity88 %
Density altitude18 ft. (6 m)
Remarks No significant changes expected in the next two hours
Flight conditions Visual Meteorological Conditions
Raw dataORMM 241800Z 00000KT 9999 FEW030 BKN100 14/12 Q1015 NOSIG
An error has occurred. This application may no longer respond until reloaded. Reload 🗙